createdAt,value
2022-08-26T00:00:09.167Z,372
2022-08-26T00:01:07.551Z,376
2022-08-26T00:02:08.079Z,374
2022-08-26T00:03:07.975Z,376
2022-08-26T00:04:07.971Z,373
2022-08-26T00:05:07.585Z,379
2022-08-26T00:07:07.869Z,383
2022-08-26T00:08:07.569Z,386
2022-08-26T00:09:08.026Z,384
2022-08-26T00:10:07.942Z,389
2022-08-26T00:11:07.554Z,368
2022-08-26T00:12:07.772Z,407
2022-08-26T00:13:07.839Z,400
2022-08-26T00:14:07.731Z,396
2022-08-26T00:15:07.644Z,394
2022-08-26T00:16:07.849Z,385
2022-08-26T00:17:08.601Z,382
2022-08-26T00:18:21.912Z,376
2022-08-26T00:19:07.654Z,382
2022-08-26T00:20:07.583Z,395
2022-08-26T00:21:07.605Z,397
2022-08-26T00:22:07.440Z,387
2022-08-26T00:24:07.855Z,391
2022-08-26T00:25:07.717Z,385
2022-08-26T00:26:08.458Z,405
2022-08-26T00:27:08.223Z,396
2022-08-26T00:28:07.904Z,385
2022-08-26T00:29:07.531Z,387
2022-08-26T00:30:07.813Z,382
2022-08-26T00:31:07.655Z,384
2022-08-26T00:33:08.107Z,378
2022-08-26T00:34:07.457Z,391
2022-08-26T00:35:08.262Z,404
2022-08-26T00:36:07.621Z,394
2022-08-26T00:37:09.085Z,411
2022-08-26T00:38:07.676Z,409
2022-08-26T00:39:07.840Z,386
2022-08-26T00:40:08.080Z,443
2022-08-26T00:41:07.661Z,391
2022-08-26T00:42:07.976Z,377
2022-08-26T00:43:09.429Z,388
2022-08-26T00:44:07.600Z,395
2022-08-26T00:45:10.187Z,393
2022-08-26T00:46:08.143Z,390
2022-08-26T00:47:07.535Z,391
2022-08-26T00:48:07.633Z,393
2022-08-26T00:49:12.180Z,398
2022-08-26T00:50:07.684Z,386
2022-08-26T00:51:07.586Z,389
2022-08-26T00:52:09.846Z,397
2022-08-26T00:53:07.851Z,404
2022-08-26T00:54:07.953Z,402
2022-08-26T00:55:08.107Z,387
2022-08-26T00:56:07.601Z,384
2022-08-26T00:57:15.791Z,394
2022-08-26T00:58:07.593Z,392
2022-08-26T00:59:07.530Z,393
2022-08-26T01:00:08.541Z,400
2022-08-26T01:01:07.615Z,406
2022-08-26T01:02:07.735Z,404
2022-08-26T01:03:11.639Z,409
2022-08-26T01:04:07.658Z,406
2022-08-26T01:05:07.843Z,394
2022-08-26T01:06:12.347Z,380
2022-08-26T01:07:08.219Z,382
2022-08-26T01:08:07.274Z,369
2022-08-26T01:09:07.413Z,411
2022-08-26T01:10:07.764Z,395
2022-08-26T01:11:08.014Z,389
2022-08-26T01:12:07.369Z,397
2022-08-26T01:13:07.893Z,391
2022-08-26T01:14:08.763Z,393
2022-08-26T01:15:08.116Z,405
2022-08-26T01:16:07.765Z,401
2022-08-26T01:17:08.285Z,406
2022-08-26T01:18:07.842Z,398
2022-08-26T01:19:07.660Z,393
2022-08-26T01:20:08.199Z,396
2022-08-26T01:21:22.493Z,377
2022-08-26T01:22:07.735Z,386
2022-08-26T01:23:08.670Z,396
2022-08-26T01:24:07.774Z,391
2022-08-26T01:25:07.736Z,392
2022-08-26T01:26:08.097Z,398
2022-08-26T01:27:07.647Z,392
2022-08-26T01:28:07.821Z,398
2022-08-26T01:29:07.745Z,399
2022-08-26T01:31:08.072Z,407
2022-08-26T01:32:08.030Z,402
2022-08-26T01:33:08.232Z,401
2022-08-26T01:34:07.618Z,407
2022-08-26T01:35:07.852Z,416
2022-08-26T01:36:08.222Z,418
2022-08-26T01:37:07.723Z,406
2022-08-26T01:38:07.430Z,409
2022-08-26T01:39:07.633Z,375
2022-08-26T01:40:07.939Z,397
2022-08-26T01:41:16.107Z,403
2022-08-26T01:42:10.419Z,397
2022-08-26T01:43:07.939Z,398
2022-08-26T01:44:07.798Z,406
2022-08-26T01:45:08.419Z,398
2022-08-26T01:46:07.890Z,404
2022-08-26T01:47:07.957Z,410
2022-08-26T01:48:07.962Z,407
2022-08-26T01:49:07.867Z,405
2022-08-26T01:50:08.306Z,402
2022-08-26T01:51:07.423Z,397
2022-08-26T01:52:07.495Z,396
2022-08-26T01:53:08.455Z,424
2022-08-26T01:54:07.468Z,402
2022-08-26T01:55:08.347Z,398
2022-08-26T01:57:07.942Z,407
2022-08-26T01:58:08.020Z,394
2022-08-26T01:59:07.945Z,397
2022-08-26T02:00:08.229Z,401
2022-08-26T02:01:07.747Z,394
2022-08-26T02:02:08.283Z,396
2022-08-26T02:03:08.298Z,394
2022-08-26T02:04:07.459Z,397
2022-08-26T02:05:07.852Z,384
2022-08-26T02:06:09.199Z,390
2022-08-26T02:07:07.595Z,398
2022-08-26T02:08:07.692Z,375
2022-08-26T02:09:07.942Z,387
2022-08-26T02:10:08.643Z,401
2022-08-26T02:11:08.209Z,404
2022-08-26T02:12:07.883Z,396
2022-08-26T02:15:08.296Z,394
2022-08-26T02:16:07.970Z,392
2022-08-26T02:17:08.394Z,385
2022-08-26T02:18:07.743Z,383
2022-08-26T02:19:07.639Z,386
2022-08-26T02:20:07.643Z,399
2022-08-26T02:21:07.715Z,390
2022-08-26T02:22:07.479Z,395
2022-08-26T02:23:08.249Z,387
2022-08-26T02:24:07.893Z,393
2022-08-26T02:25:08.310Z,395
2022-08-26T02:26:07.928Z,401
2022-08-26T02:27:07.636Z,399
2022-08-26T02:28:08.225Z,386
2022-08-26T02:29:07.765Z,394
2022-08-26T02:30:07.911Z,390
2022-08-26T02:32:07.633Z,393
2022-08-26T02:33:07.745Z,383
2022-08-26T02:34:07.867Z,381
2022-08-26T02:35:07.634Z,384
2022-08-26T02:36:07.588Z,382
2022-08-26T02:37:07.770Z,398
2022-08-26T02:38:10.278Z,393
2022-08-26T02:39:07.529Z,403
2022-08-26T02:40:07.570Z,386
2022-08-26T02:41:08.078Z,382
2022-08-26T02:42:07.897Z,388
2022-08-26T02:43:08.654Z,378
2022-08-26T02:44:08.129Z,382
2022-08-26T02:45:08.147Z,387
2022-08-26T02:46:08.208Z,383
2022-08-26T02:47:07.810Z,382
2022-08-26T02:48:08.155Z,380
2022-08-26T02:50:08.412Z,386
2022-08-26T02:51:07.521Z,375
2022-08-26T02:52:07.762Z,383
2022-08-26T02:53:08.127Z,401
2022-08-26T02:54:07.499Z,393
2022-08-26T02:55:07.753Z,385
2022-08-26T02:56:07.603Z,384
2022-08-26T02:57:07.804Z,369
2022-08-26T02:58:07.601Z,372
2022-08-26T02:59:08.300Z,378
2022-08-26T03:00:08.150Z,382
2022-08-26T03:02:08.193Z,388
2022-08-26T03:03:07.850Z,387
2022-08-26T03:04:08.338Z,394
2022-08-26T03:05:07.696Z,384
2022-08-26T03:06:07.871Z,379
2022-08-26T03:07:07.554Z,378
2022-08-26T03:08:07.493Z,370
2022-08-26T03:09:08.073Z,375
2022-08-26T03:10:08.849Z,379
2022-08-26T03:11:08.428Z,376
2022-08-26T03:12:07.559Z,382
2022-08-26T03:13:07.887Z,387
2022-08-26T03:14:07.841Z,391
2022-08-26T03:15:17.446Z,396
2022-08-26T03:16:08.141Z,395
2022-08-26T03:17:07.701Z,392
2022-08-26T03:18:07.665Z,386
2022-08-26T03:19:07.798Z,377
2022-08-26T03:20:08.478Z,378
2022-08-26T03:21:08.208Z,387
2022-08-26T03:22:07.556Z,384
2022-08-26T03:23:07.758Z,376
2022-08-26T03:24:07.564Z,386
2022-08-26T03:25:07.838Z,390
2022-08-26T03:26:07.725Z,379
2022-08-26T03:27:08.554Z,370
2022-08-26T03:28:09.665Z,380
2022-08-26T03:29:07.775Z,393
2022-08-26T03:30:08.134Z,395
2022-08-26T03:31:07.891Z,390
2022-08-26T03:32:07.559Z,386
2022-08-26T03:33:07.625Z,393
2022-08-26T03:34:07.909Z,382
2022-08-26T03:35:08.155Z,384
2022-08-26T03:36:07.648Z,386
2022-08-26T03:37:07.509Z,392
2022-08-26T03:38:07.607Z,382
2022-08-26T03:39:07.722Z,385
2022-08-26T03:40:07.872Z,386
2022-08-26T03:41:08.263Z,383
2022-08-26T03:42:07.751Z,382
2022-08-26T03:44:07.478Z,381
2022-08-26T03:45:08.209Z,379
2022-08-26T03:46:07.647Z,381
2022-08-26T03:47:07.682Z,385
2022-08-26T03:48:08.014Z,387
2022-08-26T03:49:07.740Z,378
2022-08-26T03:50:08.291Z,381
2022-08-26T03:51:07.939Z,376
2022-08-26T03:52:07.755Z,381
2022-08-26T03:53:12.869Z,370
2022-08-26T03:54:08.324Z,379
2022-08-26T03:55:07.916Z,373
2022-08-26T03:56:08.010Z,385
2022-08-26T03:57:07.382Z,386
2022-08-26T03:58:07.331Z,380
2022-08-26T03:59:07.796Z,373
2022-08-26T04:00:08.077Z,381
2022-08-26T04:01:07.472Z,380
2022-08-26T04:02:08.494Z,381
2022-08-26T04:03:09.733Z,387
2022-08-26T04:04:08.401Z,376
2022-08-26T04:05:08.156Z,379
2022-08-26T04:06:07.585Z,381
2022-08-26T04:07:07.485Z,375
2022-08-26T04:08:08.206Z,379
2022-08-26T04:09:07.515Z,384
2022-08-26T04:10:08.025Z,371
2022-08-26T04:11:07.579Z,374
2022-08-26T04:12:07.939Z,379
2022-08-26T04:13:08.491Z,370
2022-08-26T04:14:07.578Z,375
2022-08-26T04:15:08.034Z,381
2022-08-26T04:16:07.478Z,370
2022-08-26T04:18:07.614Z,378
2022-08-26T04:19:07.619Z,385
2022-08-26T04:20:07.816Z,376
2022-08-26T04:21:08.087Z,368
2022-08-26T04:22:07.511Z,344
2022-08-26T04:23:07.989Z,404
2022-08-26T04:24:10.277Z,367
2022-08-26T04:25:08.204Z,373
2022-08-26T04:26:08.269Z,377
2022-08-26T04:27:07.313Z,373
2022-08-26T04:28:08.211Z,366
2022-08-26T04:29:08.212Z,374
2022-08-26T04:30:07.779Z,383
2022-08-26T04:31:07.957Z,387
2022-08-26T04:32:07.644Z,379
2022-08-26T04:33:13.074Z,377
2022-08-26T04:34:07.404Z,370
2022-08-26T04:35:07.532Z,373
2022-08-26T04:36:07.539Z,368
2022-08-26T04:37:08.132Z,374
2022-08-26T04:38:08.099Z,373
2022-08-26T04:39:08.312Z,385
2022-08-26T04:40:07.709Z,379
2022-08-26T04:41:15.044Z,376
2022-08-26T04:42:07.852Z,380
2022-08-26T04:43:08.468Z,389
2022-08-26T04:44:07.912Z,383
2022-08-26T04:45:09.914Z,374
2022-08-26T04:46:07.642Z,377
2022-08-26T04:47:07.715Z,383
2022-08-26T04:48:08.397Z,386
2022-08-26T04:49:07.651Z,391
2022-08-26T04:50:07.771Z,387
2022-08-26T04:51:07.720Z,376
2022-08-26T04:53:07.677Z,373
2022-08-26T04:54:07.968Z,378
2022-08-26T04:55:08.759Z,383
2022-08-26T04:56:07.483Z,372
2022-08-26T04:57:07.870Z,383
2022-08-26T04:58:07.724Z,374
2022-08-26T04:59:07.856Z,366
2022-08-26T05:00:08.565Z,367
2022-08-26T05:01:08.093Z,360
2022-08-26T05:02:07.664Z,367
2022-08-26T05:03:07.735Z,365
2022-08-26T05:05:08.008Z,374
2022-08-26T05:06:08.705Z,384
2022-08-26T05:07:08.131Z,373
2022-08-26T05:08:07.838Z,374
2022-08-26T05:09:07.684Z,371
2022-08-26T05:11:08.327Z,374
2022-08-26T05:13:11.066Z,384
2022-08-26T05:14:07.785Z,380
2022-08-26T05:15:08.127Z,370
2022-08-26T05:16:07.879Z,386
2022-08-26T05:17:07.945Z,378
2022-08-26T05:18:07.763Z,366
2022-08-26T05:20:08.365Z,376
2022-08-26T05:21:08.538Z,378
2022-08-26T05:22:07.877Z,373
2022-08-26T05:23:08.200Z,379
2022-08-26T05:24:07.616Z,394
2022-08-26T05:25:07.798Z,362
2022-08-26T05:26:08.283Z,364
2022-08-26T05:27:11.667Z,373
2022-08-26T05:28:08.518Z,382
2022-08-26T05:29:07.731Z,375
2022-08-26T05:30:08.170Z,366
2022-08-26T05:31:08.534Z,372
2022-08-26T05:32:08.029Z,366
2022-08-26T05:33:08.093Z,370
2022-08-26T05:34:07.323Z,376
2022-08-26T05:35:08.935Z,377
2022-08-26T05:36:07.716Z,372
2022-08-26T05:37:07.655Z,370
2022-08-26T05:38:12.256Z,365
2022-08-26T05:39:10.606Z,357
2022-08-26T05:40:08.178Z,394
2022-08-26T05:41:07.582Z,391
2022-08-26T05:42:08.163Z,384
2022-08-26T05:43:07.711Z,376
2022-08-26T05:44:07.535Z,362
2022-08-26T05:45:07.853Z,365
2022-08-26T05:46:08.052Z,372
2022-08-26T05:47:08.058Z,382
2022-08-26T05:48:08.153Z,375
2022-08-26T05:49:12.435Z,373
2022-08-26T05:50:07.776Z,374
2022-08-26T05:51:07.657Z,377
2022-08-26T05:52:07.680Z,369
2022-08-26T05:53:07.756Z,379
2022-08-26T05:54:08.371Z,370
2022-08-26T05:55:08.665Z,403
2022-08-26T05:56:07.934Z,395
2022-08-26T05:57:09.225Z,389
2022-08-26T05:58:09.857Z,384
2022-08-26T05:59:14.340Z,385
2022-08-26T06:00:08.934Z,386
2022-08-26T06:01:08.514Z,383
2022-08-26T06:02:08.092Z,379
2022-08-26T06:03:09.606Z,367
2022-08-26T06:04:09.170Z,360
2022-08-26T06:05:08.314Z,366
2022-08-26T06:06:08.453Z,369
2022-08-26T06:07:07.738Z,364
2022-08-26T06:08:08.517Z,363
2022-08-26T06:09:09.449Z,368
2022-08-26T06:10:31.014Z,373
2022-08-26T06:11:08.765Z,343
2022-08-26T06:12:08.119Z,352
2022-08-26T06:13:11.564Z,363
2022-08-26T06:14:08.572Z,369
2022-08-26T06:15:08.457Z,373
2022-08-26T06:17:08.196Z,372
2022-08-26T06:18:08.134Z,368
2022-08-26T06:19:10.900Z,373
2022-08-26T06:20:07.937Z,364
2022-08-26T06:21:08.697Z,368
2022-08-26T06:22:07.971Z,383
2022-08-26T06:23:08.285Z,378
2022-08-26T06:24:08.295Z,385
2022-08-26T06:25:07.987Z,356
2022-08-26T06:26:08.370Z,401
2022-08-26T06:27:07.604Z,380
2022-08-26T06:28:08.253Z,366
2022-08-26T06:29:08.194Z,358
2022-08-26T06:30:08.504Z,372
2022-08-26T06:31:08.229Z,376
2022-08-26T06:32:08.798Z,361
2022-08-26T06:33:08.526Z,359
2022-08-26T06:34:10.707Z,370
2022-08-26T06:35:12.205Z,379
2022-08-26T06:36:08.353Z,378
2022-08-26T06:37:08.112Z,373
2022-08-26T06:38:08.188Z,368
2022-08-26T06:39:30.707Z,363
2022-08-26T06:40:07.629Z,368
2022-08-26T06:41:08.105Z,353
2022-08-26T06:43:07.945Z,362
2022-08-26T06:44:07.892Z,361
2022-08-26T06:45:09.831Z,360
2022-08-26T06:46:07.876Z,362
2022-08-26T06:47:07.727Z,359
2022-08-26T06:48:07.999Z,367
2022-08-26T06:50:07.765Z,371
2022-08-26T06:51:08.261Z,374
2022-08-26T06:52:07.709Z,383
2022-08-26T06:54:08.436Z,372
2022-08-26T06:55:07.989Z,364
2022-08-26T06:56:07.807Z,369
2022-08-26T06:57:08.132Z,359
2022-08-26T06:58:07.716Z,373
2022-08-26T06:59:07.878Z,376
2022-08-26T07:00:08.566Z,380
2022-08-26T07:01:11.619Z,370
2022-08-26T07:02:08.151Z,368
2022-08-26T07:03:08.613Z,373
2022-08-26T07:04:10.373Z,369
2022-08-26T07:06:08.578Z,376
2022-08-26T07:07:09.672Z,371
2022-08-26T07:08:08.241Z,372
2022-08-26T07:09:09.707Z,387
2022-08-26T07:10:08.743Z,381
2022-08-26T07:11:08.488Z,358
2022-08-26T07:12:08.260Z,381
2022-08-26T07:14:07.606Z,379
2022-08-26T07:15:07.924Z,381
2022-08-26T07:16:07.985Z,388
2022-08-26T07:17:12.220Z,377
2022-08-26T07:18:08.004Z,372
2022-08-26T07:19:10.937Z,369
2022-08-26T07:20:09.225Z,378
2022-08-26T07:21:08.241Z,375
2022-08-26T07:22:08.650Z,377
2022-08-26T07:23:07.748Z,375
2022-08-26T07:24:08.021Z,371
2022-08-26T07:25:08.585Z,374
2022-08-26T07:26:08.353Z,379
2022-08-26T07:27:08.708Z,370
2022-08-26T07:28:07.943Z,378
2022-08-26T07:29:08.385Z,373
2022-08-26T07:30:08.649Z,379
2022-08-26T07:31:09.667Z,380
2022-08-26T07:32:08.520Z,370
2022-08-26T07:33:08.553Z,369
2022-08-26T07:34:08.858Z,371
2022-08-26T07:35:08.633Z,374
2022-08-26T07:36:08.029Z,353
2022-08-26T07:37:08.795Z,361
2022-08-26T07:38:07.860Z,364
2022-08-26T07:39:08.784Z,370
2022-08-26T07:40:08.315Z,365
2022-08-26T07:41:08.018Z,380
2022-08-26T07:42:08.565Z,358
2022-08-26T07:43:08.923Z,355
2022-08-26T07:44:07.814Z,358
2022-08-26T07:45:08.258Z,354
2022-08-26T07:46:08.025Z,351
2022-08-26T07:47:10.465Z,362
2022-08-26T07:48:08.289Z,370
2022-08-26T07:49:08.540Z,367
2022-08-26T07:50:08.718Z,362
2022-08-26T07:51:08.024Z,370
2022-08-26T07:52:08.486Z,369
2022-08-26T07:53:08.425Z,366
2022-08-26T07:54:07.877Z,370
2022-08-26T07:55:07.803Z,367
2022-08-26T07:56:08.569Z,357
2022-08-26T07:57:08.354Z,379
2022-08-26T07:58:07.740Z,358
2022-08-26T07:59:13.584Z,353
2022-08-26T08:00:08.656Z,366
2022-08-26T08:02:08.436Z,368
2022-08-26T08:03:08.068Z,367
2022-08-26T08:05:07.738Z,359
2022-08-26T08:06:07.780Z,370
2022-08-26T08:07:11.596Z,376
2022-08-26T08:08:26.909Z,365
2022-08-26T08:09:08.257Z,359
2022-08-26T08:10:11.374Z,369
2022-08-26T08:11:08.320Z,356
2022-08-26T08:12:08.347Z,395
2022-08-26T08:13:08.017Z,356
2022-08-26T08:14:08.773Z,363
2022-08-26T08:15:08.701Z,378
2022-08-26T08:16:07.918Z,386
2022-08-26T08:17:08.781Z,380
2022-08-26T08:19:07.980Z,381
2022-08-26T08:20:08.166Z,366
2022-08-26T08:21:21.289Z,359
2022-08-26T08:22:17.277Z,361
2022-08-26T08:23:08.225Z,356
2022-08-26T08:24:07.693Z,358
2022-08-26T08:25:08.323Z,362
2022-08-26T08:26:08.281Z,348
2022-08-26T08:27:07.771Z,373
2022-08-26T08:28:08.164Z,345
2022-08-26T08:29:08.305Z,358
2022-08-26T08:30:08.480Z,365
2022-08-26T08:31:07.806Z,364
2022-08-26T08:32:11.588Z,369
2022-08-26T08:33:07.994Z,361
2022-08-26T08:34:07.692Z,372
2022-08-26T08:35:11.596Z,368
2022-08-26T08:36:09.269Z,363
2022-08-26T08:37:10.659Z,364
2022-08-26T08:38:08.017Z,355
2022-08-26T08:39:08.549Z,341
2022-08-26T08:40:07.608Z,344
2022-08-26T08:41:07.761Z,359
2022-08-26T08:42:08.056Z,353
2022-08-26T08:43:08.188Z,354
2022-08-26T08:44:07.758Z,356
2022-08-26T08:45:08.360Z,355
2022-08-26T08:46:07.929Z,371
2022-08-26T08:47:08.417Z,368
2022-08-26T08:48:08.101Z,376
2022-08-26T08:50:08.400Z,370
2022-08-26T08:51:07.952Z,371
2022-08-26T08:52:07.626Z,356
2022-08-26T08:53:09.039Z,362
2022-08-26T08:54:08.027Z,360
2022-08-26T08:55:09.648Z,359
2022-08-26T08:56:27.311Z,348
2022-08-26T08:57:08.166Z,381
2022-08-26T08:58:08.398Z,352
2022-08-26T08:59:08.513Z,365
2022-08-26T09:00:08.573Z,368
2022-08-26T09:01:07.545Z,371
2022-08-26T09:02:08.380Z,370
2022-08-26T09:04:07.557Z,363
2022-08-26T09:05:08.020Z,352
2022-08-26T09:06:08.338Z,362
2022-08-26T09:07:07.502Z,361
2022-08-26T09:08:08.017Z,365
2022-08-26T09:10:07.869Z,362
2022-08-26T09:11:07.646Z,361
2022-08-26T09:12:08.108Z,362
2022-08-26T09:13:07.802Z,360
2022-08-26T09:14:07.646Z,369
2022-08-26T09:15:07.982Z,370
2022-08-26T09:16:08.355Z,374
2022-08-26T09:17:08.537Z,366
2022-08-26T09:18:08.014Z,363
2022-08-26T09:19:08.275Z,366
2022-08-26T09:20:08.043Z,361
2022-08-26T09:21:08.349Z,351
2022-08-26T09:22:09.590Z,357
2022-08-26T09:23:08.255Z,358
2022-08-26T09:24:07.750Z,364
2022-08-26T09:25:07.647Z,360
2022-08-26T09:26:07.625Z,347
2022-08-26T09:27:08.424Z,388
2022-08-26T09:28:08.191Z,354
2022-08-26T09:29:07.577Z,368
2022-08-26T09:30:11.452Z,366
2022-08-26T09:31:11.198Z,363
2022-08-26T09:32:08.303Z,368
2022-08-26T09:33:10.933Z,363
2022-08-26T09:34:07.985Z,354
2022-08-26T09:35:08.135Z,357
2022-08-26T09:36:07.634Z,363
2022-08-26T09:37:08.394Z,368
2022-08-26T09:38:11.690Z,362
2022-08-26T09:39:08.302Z,360
2022-08-26T09:40:08.025Z,366
2022-08-26T09:41:07.860Z,363
2022-08-26T09:42:07.664Z,376
2022-08-26T09:43:08.186Z,337
2022-08-26T09:44:07.875Z,348
2022-08-26T09:45:08.639Z,355
2022-08-26T09:46:07.627Z,365
2022-08-26T09:47:07.831Z,362
2022-08-26T09:48:08.707Z,346
2022-08-26T09:49:08.102Z,355
2022-08-26T09:50:09.437Z,361
2022-08-26T09:51:07.856Z,354
2022-08-26T09:52:08.002Z,365
2022-08-26T09:53:09.477Z,376
2022-08-26T09:54:08.273Z,366
2022-08-26T09:55:08.446Z,357
2022-08-26T09:56:07.814Z,367
2022-08-26T09:57:08.149Z,360
2022-08-26T09:58:09.202Z,398
2022-08-26T09:59:07.734Z,384
2022-08-26T10:00:09.386Z,379
2022-08-26T10:01:08.160Z,362
2022-08-26T10:02:08.052Z,352
2022-08-26T10:03:08.315Z,357
2022-08-26T10:04:07.903Z,354
2022-08-26T10:05:09.208Z,357
2022-08-26T10:06:08.400Z,361
2022-08-26T10:07:08.194Z,354
2022-08-26T10:08:07.639Z,360
2022-08-26T10:09:09.860Z,361
2022-08-26T10:10:07.888Z,366
2022-08-26T10:11:07.905Z,372
2022-08-26T10:12:08.459Z,365
2022-08-26T10:13:08.339Z,353
2022-08-26T10:14:07.730Z,356
2022-08-26T10:15:08.489Z,358
2022-08-26T10:16:10.694Z,356
2022-08-26T10:17:08.185Z,360
2022-08-26T10:18:07.891Z,364
2022-08-26T10:19:08.321Z,361
2022-08-26T10:20:16.803Z,363
2022-08-26T10:21:07.727Z,364
2022-08-26T10:22:08.142Z,363
2022-08-26T10:23:08.158Z,371
2022-08-26T10:24:07.650Z,360
2022-08-26T10:25:07.659Z,362
2022-08-26T10:27:07.981Z,375
2022-08-26T10:28:08.329Z,350
2022-08-26T10:29:08.435Z,361
2022-08-26T10:30:08.687Z,362
2022-08-26T10:31:08.078Z,360
2022-08-26T10:33:08.165Z,363
2022-08-26T10:34:07.807Z,350
2022-08-26T10:35:07.614Z,344
2022-08-26T10:36:08.516Z,357
2022-08-26T10:37:13.906Z,365
2022-08-26T10:38:07.995Z,368
2022-08-26T10:39:08.360Z,370
2022-08-26T10:40:08.542Z,368
2022-08-26T10:41:10.400Z,356
2022-08-26T10:42:07.794Z,352
2022-08-26T10:43:11.330Z,372
2022-08-26T10:44:08.257Z,345
2022-08-26T10:45:11.834Z,357
2022-08-26T10:46:08.444Z,363
2022-08-26T10:47:08.245Z,357
2022-08-26T10:48:08.520Z,349
2022-08-26T10:49:07.801Z,356
2022-08-26T10:50:08.182Z,368
2022-08-26T10:51:08.690Z,359
2022-08-26T10:52:12.193Z,357
2022-08-26T10:53:07.868Z,359
2022-08-26T10:54:08.441Z,374
2022-08-26T10:55:16.491Z,378
2022-08-26T10:56:15.733Z,367
2022-08-26T10:57:09.783Z,359
2022-08-26T10:58:09.207Z,371
2022-08-26T10:59:12.265Z,370
2022-08-26T11:00:08.633Z,369
2022-08-26T11:01:10.474Z,376
2022-08-26T11:02:08.367Z,370
2022-08-26T11:03:21.722Z,358
2022-08-26T11:04:08.522Z,347
2022-08-26T11:05:08.211Z,354
2022-08-26T11:06:08.472Z,369
2022-08-26T11:07:08.327Z,374
2022-08-26T11:08:07.867Z,371
2022-08-26T11:09:08.146Z,368
2022-08-26T11:10:07.865Z,369
2022-08-26T11:11:08.566Z,366
2022-08-26T11:12:10.274Z,353
2022-08-26T11:13:08.389Z,366
2022-08-26T11:14:08.200Z,372
2022-08-26T11:15:08.835Z,380
2022-08-26T11:16:08.730Z,377
2022-08-26T11:17:08.687Z,378
2022-08-26T11:19:08.206Z,372
2022-08-26T11:20:13.443Z,355
2022-08-26T11:21:10.344Z,353
2022-08-26T11:24:08.425Z,358
2022-08-26T11:25:08.365Z,359
2022-08-26T11:26:08.234Z,365
2022-08-26T11:27:07.819Z,367
2022-08-26T11:28:08.609Z,365
2022-08-26T11:30:08.059Z,357
2022-08-26T11:31:07.963Z,354
2022-08-26T11:32:08.308Z,350
2022-08-26T11:33:09.023Z,356
2022-08-26T11:34:08.744Z,352
2022-08-26T11:35:08.402Z,358
2022-08-26T11:36:12.191Z,371
2022-08-26T11:37:07.995Z,362
2022-08-26T11:38:08.350Z,354
2022-08-26T11:39:08.332Z,348
2022-08-26T11:40:07.769Z,347
2022-08-26T11:41:07.723Z,351
2022-08-26T11:42:08.232Z,357
2022-08-26T11:43:07.914Z,338
2022-08-26T11:44:08.362Z,353
2022-08-26T11:45:07.862Z,361
2022-08-26T11:46:07.911Z,358
2022-08-26T11:47:11.378Z,361
2022-08-26T11:48:07.984Z,367
2022-08-26T11:49:08.127Z,372
2022-08-26T11:50:08.462Z,373
2022-08-26T11:51:07.998Z,364
2022-08-26T11:53:07.847Z,368
2022-08-26T11:54:08.426Z,366
2022-08-26T11:55:08.348Z,371
2022-08-26T11:56:08.101Z,376
2022-08-26T11:57:11.848Z,379
2022-08-26T11:58:08.415Z,369
2022-08-26T11:59:07.917Z,359
2022-08-26T12:00:10.655Z,351
2022-08-26T12:01:09.866Z,356
2022-08-26T12:02:08.018Z,352
2022-08-26T12:03:08.730Z,342
2022-08-26T12:04:08.075Z,351
2022-08-26T12:05:08.460Z,360
2022-08-26T12:06:07.558Z,367
2022-08-26T12:07:08.618Z,363
2022-08-26T12:08:08.685Z,358
2022-08-26T12:09:08.780Z,356
2022-08-26T12:10:08.069Z,347
2022-08-26T12:11:08.611Z,351
2022-08-26T12:12:08.386Z,327
2022-08-26T12:13:08.345Z,399
2022-08-26T12:14:08.497Z,348
2022-08-26T12:15:08.612Z,355
2022-08-26T12:16:08.784Z,361
2022-08-26T12:17:09.850Z,353
2022-08-26T12:18:08.906Z,348
2022-08-26T12:19:07.903Z,354
2022-08-26T12:20:08.377Z,360
2022-08-26T12:21:08.350Z,351
2022-08-26T12:22:08.335Z,358
2022-08-26T12:23:08.122Z,354
2022-08-26T12:24:08.154Z,343
2022-08-26T12:25:08.346Z,346
2022-08-26T12:26:08.065Z,365
2022-08-26T12:27:08.159Z,371
2022-08-26T12:28:08.462Z,351
2022-08-26T12:29:12.736Z,352
2022-08-26T12:30:08.586Z,354
2022-08-26T12:31:07.838Z,362
2022-08-26T12:32:08.507Z,365
2022-08-26T12:33:22.259Z,357
2022-08-26T12:34:15.883Z,363
2022-08-26T12:35:08.051Z,360
2022-08-26T12:36:08.138Z,365
2022-08-26T12:37:08.378Z,356
2022-08-26T12:38:08.042Z,360
2022-08-26T12:39:08.409Z,361
2022-08-26T12:40:08.096Z,349
2022-08-26T12:42:08.556Z,367
2022-08-26T12:43:08.132Z,355
2022-08-26T12:44:08.141Z,359
2022-08-26T12:45:08.139Z,363
2022-08-26T12:46:08.205Z,364
2022-08-26T12:47:08.019Z,356
2022-08-26T12:50:08.129Z,354
2022-08-26T12:51:08.338Z,352
2022-08-26T12:52:07.658Z,366
2022-08-26T12:53:08.033Z,368
2022-08-26T12:54:08.449Z,361
2022-08-26T12:55:08.207Z,363
2022-08-26T12:56:07.790Z,365
2022-08-26T12:57:08.576Z,342
2022-08-26T12:58:08.314Z,387
2022-08-26T12:59:08.287Z,362
2022-08-26T13:00:08.365Z,361
2022-08-26T13:01:08.464Z,355
2022-08-26T13:02:08.572Z,349
2022-08-26T13:03:08.568Z,345
2022-08-26T13:05:08.328Z,356
2022-08-26T13:06:15.639Z,358
2022-08-26T13:07:07.888Z,366
2022-08-26T13:09:08.036Z,360
2022-08-26T13:10:07.998Z,359
2022-08-26T13:11:07.911Z,358
2022-08-26T13:12:08.344Z,327
2022-08-26T13:13:08.259Z,386
2022-08-26T13:14:07.937Z,375
2022-08-26T13:15:08.291Z,370
2022-08-26T13:16:08.031Z,365
2022-08-26T13:17:08.519Z,357
2022-08-26T13:18:08.379Z,363
2022-08-26T13:19:10.450Z,362
2022-08-26T13:20:08.502Z,372
2022-08-26T13:21:08.066Z,373
2022-08-26T13:22:08.457Z,365
2022-08-26T13:23:08.105Z,360
2022-08-26T13:24:08.419Z,353
2022-08-26T13:25:08.116Z,346
2022-08-26T13:26:08.354Z,344
2022-08-26T13:27:07.831Z,337
2022-08-26T13:28:22.405Z,356
2022-08-26T13:29:10.322Z,354
2022-08-26T13:30:08.571Z,353
2022-08-26T13:31:08.072Z,355
2022-08-26T13:32:07.905Z,345
2022-08-26T13:33:08.303Z,350
2022-08-26T13:34:08.223Z,347
2022-08-26T13:35:08.040Z,340
2022-08-26T13:36:08.434Z,335
2022-08-26T13:37:08.058Z,349
2022-08-26T13:38:08.486Z,347
2022-08-26T13:39:08.160Z,359
2022-08-26T13:40:08.841Z,361
2022-08-26T13:41:08.025Z,360
2022-08-26T13:42:08.142Z,350
2022-08-26T13:43:08.183Z,357
2022-08-26T13:44:07.742Z,365
2022-08-26T13:45:08.576Z,368
2022-08-26T13:46:08.055Z,365
2022-08-26T13:47:07.879Z,369
2022-08-26T13:48:08.730Z,370
2022-08-26T13:49:07.749Z,359
2022-08-26T13:50:08.453Z,356
2022-08-26T13:51:08.284Z,351
2022-08-26T13:52:07.820Z,357
2022-08-26T13:53:08.291Z,358
2022-08-26T13:55:08.540Z,356
2022-08-26T13:56:10.884Z,358
2022-08-26T13:57:07.787Z,343
2022-08-26T13:59:07.792Z,357
2022-08-26T14:00:11.136Z,352
2022-08-26T14:01:08.325Z,339
2022-08-26T14:02:08.152Z,351
2022-08-26T14:03:12.622Z,343
2022-08-26T14:04:08.009Z,355
2022-08-26T14:05:08.503Z,354
2022-08-26T14:06:08.041Z,362
2022-08-26T14:07:08.148Z,357
2022-08-26T14:08:08.873Z,355
2022-08-26T14:09:08.216Z,342
2022-08-26T14:10:08.410Z,344
2022-08-26T14:11:08.105Z,359
2022-08-26T14:12:08.712Z,333
2022-08-26T14:13:08.590Z,335
2022-08-26T14:14:08.185Z,358
2022-08-26T14:15:08.127Z,356
2022-08-26T14:16:08.213Z,347
2022-08-26T14:17:08.250Z,343
2022-08-26T14:18:08.391Z,340
2022-08-26T14:19:08.390Z,350
2022-08-26T14:20:08.658Z,356
2022-08-26T14:21:08.376Z,354
2022-08-26T14:23:13.999Z,348
2022-08-26T14:24:07.972Z,344
2022-08-26T14:25:08.379Z,343
2022-08-26T14:26:08.525Z,358
2022-08-26T14:27:07.896Z,355
2022-08-26T14:28:08.527Z,344
2022-08-26T14:29:09.932Z,346
2022-08-26T14:30:08.578Z,352